sensor_id;sensor_type;location;lat;lon;timestamp;P1;durP1;ratioP1;P2;durP2;ratioP2
77736;SDS011;66903;59.926;30.404;2023-05-17T00:02:56;2.53;;;0.90;;
77736;SDS011;66903;59.926;30.404;2023-05-17T00:07:57;2.15;;;0.82;;
77736;SDS011;66903;59.926;30.404;2023-05-17T00:12:57;2.45;;;0.80;;
77736;SDS011;66903;59.926;30.404;2023-05-17T00:17:58;1.83;;;0.70;;
77736;SDS011;66903;59.926;30.404;2023-05-17T00:22:58;2.15;;;0.77;;
77736;SDS011;66903;59.926;30.404;2023-05-17T00:27:59;1.65;;;0.65;;
77736;SDS011;66903;59.926;30.404;2023-05-17T00:33:00;1.65;;;0.50;;
77736;SDS011;66903;59.926;30.404;2023-05-17T00:38:00;2.65;;;0.85;;
77736;SDS011;66903;59.926;30.404;2023-05-17T00:43:01;2.47;;;0.75;;
77736;SDS011;66903;59.926;30.404;2023-05-17T00:48:02;1.52;;;0.60;;
77736;SDS011;66903;59.926;30.404;2023-05-17T00:53:02;2.28;;;0.80;;
77736;SDS011;66903;59.926;30.404;2023-05-17T00:58:03;3.60;;;0.85;;
77736;SDS011;66903;59.926;30.404;2023-05-17T01:03:04;4.90;;;0.85;;
77736;SDS011;66903;59.926;30.404;2023-05-17T01:08:04;2.53;;;0.80;;
77736;SDS011;66903;59.926;30.404;2023-05-17T01:13:08;2.95;;;0.70;;
77736;SDS011;66903;59.926;30.404;2023-05-17T01:28:30;5.80;;;0.80;;
77736;SDS011;66903;59.926;30.404;2023-05-17T01:33:31;1.85;;;0.80;;
77736;SDS011;66903;59.926;30.404;2023-05-17T01:38:33;6.10;;;1.45;;
77736;SDS011;66903;59.926;30.404;2023-05-17T01:43:40;2.45;;;0.70;;
77736;SDS011;66903;59.926;30.404;2023-05-17T01:54:09;1.58;;;0.77;;
77736;SDS011;66903;59.926;30.404;2023-05-17T01:59:11;2.30;;;0.90;;
77736;SDS011;66903;59.926;30.404;2023-05-17T02:04:18;2.13;;;0.70;;
77736;SDS011;66903;59.926;30.404;2023-05-17T02:09:19;2.75;;;0.90;;
77736;SDS011;66903;59.926;30.404;2023-05-17T02:14:20;2.13;;;0.70;;
77736;SDS011;66903;59.926;30.404;2023-05-17T02:19:20;1.70;;;0.68;;
77736;SDS011;66903;59.926;30.404;2023-05-17T02:24:21;2.05;;;0.80;;
77736;SDS011;66903;59.926;30.404;2023-05-17T02:29:21;2.22;;;0.70;;
77736;SDS011;66903;59.926;30.404;2023-05-17T02:34:22;1.35;;;0.57;;
77736;SDS011;66903;59.926;30.404;2023-05-17T02:39:22;2.22;;;0.68;;
77736;SDS011;66903;59.926;30.404;2023-05-17T02:44:23;2.03;;;0.77;;
77736;SDS011;66903;59.926;30.404;2023-05-17T02:49:23;2.97;;;0.85;;
77736;SDS011;66903;59.926;30.404;2023-05-17T02:54:24;2.22;;;0.80;;
77736;SDS011;66903;59.926;30.404;2023-05-17T02:59:24;2.25;;;0.73;;
77736;SDS011;66903;59.926;30.404;2023-05-17T03:04:25;2.15;;;1.00;;
77736;SDS011;66903;59.926;30.404;2023-05-17T03:09:26;2.03;;;0.90;;
77736;SDS011;66903;59.926;30.404;2023-05-17T03:14:28;2.53;;;0.80;;
77736;SDS011;66903;59.926;30.404;2023-05-17T03:19:29;2.30;;;0.85;;
77736;SDS011;66903;59.926;30.404;2023-05-17T03:24:30;1.67;;;0.73;;
77736;SDS011;66903;59.926;30.404;2023-05-17T03:29:31;2.97;;;0.88;;
77736;SDS011;66903;59.926;30.404;2023-05-17T03:34:31;2.13;;;0.70;;
77736;SDS011;66903;59.926;30.404;2023-05-17T03:39:32;2.10;;;0.90;;
77736;SDS011;66903;59.926;30.404;2023-05-17T03:44:32;2.15;;;0.82;;
77736;SDS011;66903;59.926;30.404;2023-05-17T03:49:33;2.00;;;0.80;;
77736;SDS011;66903;59.926;30.404;2023-05-17T03:54:33;1.25;;;0.57;;
77736;SDS011;66903;59.926;30.404;2023-05-17T03:59:34;2.47;;;0.80;;
77736;SDS011;66903;59.926;30.404;2023-05-17T04:04:34;4.07;;;0.98;;
77736;SDS011;66903;59.926;30.404;2023-05-17T04:09:34;3.05;;;0.80;;
77736;SDS011;66903;59.926;30.404;2023-05-17T04:14:36;4.07;;;0.85;;
77736;SDS011;66903;59.926;30.404;2023-05-17T04:19:37;2.20;;;0.80;;
77736;SDS011;66903;59.926;30.404;2023-05-17T04:24:38;2.53;;;0.90;;
77736;SDS011;66903;59.926;30.404;2023-05-17T04:29:38;2.80;;;0.80;;
77736;SDS011;66903;59.926;30.404;2023-05-17T04:34:40;3.10;;;0.90;;
77736;SDS011;66903;59.926;30.404;2023-05-17T04:39:40;2.60;;;0.85;;
77736;SDS011;66903;59.926;30.404;2023-05-17T04:44:41;2.80;;;0.82;;
77736;SDS011;66903;59.926;30.404;2023-05-17T04:49:41;2.17;;;0.77;;
77736;SDS011;66903;59.926;30.404;2023-05-17T04:54:42;2.17;;;0.90;;
77736;SDS011;66903;59.926;30.404;2023-05-17T04:59:43;2.40;;;0.85;;
77736;SDS011;66903;59.926;30.404;2023-05-17T05:04:44;2.63;;;0.80;;
77736;SDS011;66903;59.926;30.404;2023-05-17T05:09:44;2.17;;;0.90;;
77736;SDS011;66903;59.926;30.404;2023-05-17T05:14:45;1.70;;;0.65;;
77736;SDS011;66903;59.926;30.404;2023-05-17T05:19:45;2.00;;;0.80;;
77736;SDS011;66903;59.926;30.404;2023-05-17T05:24:46;2.53;;;0.93;;
77736;SDS011;66903;59.926;30.404;2023-05-17T05:29:46;3.60;;;0.93;;
77736;SDS011;66903;59.926;30.404;2023-05-17T05:34:47;2.08;;;0.60;;
77736;SDS011;66903;59.926;30.404;2023-05-17T05:39:47;1.90;;;0.70;;
77736;SDS011;66903;59.926;30.404;2023-05-17T05:44:48;1.40;;;0.68;;
77736;SDS011;66903;59.926;30.404;2023-05-17T05:49:48;1.83;;;0.65;;
77736;SDS011;66903;59.926;30.404;2023-05-17T05:54:49;2.50;;;0.80;;
77736;SDS011;66903;59.926;30.404;2023-05-17T05:59:49;1.42;;;0.63;;
77736;SDS011;66903;59.926;30.404;2023-05-17T06:04:50;1.75;;;0.60;;
77736;SDS011;66903;59.926;30.404;2023-05-17T06:09:50;1.35;;;0.60;;
77736;SDS011;66903;59.926;30.404;2023-05-17T06:14:51;3.42;;;0.80;;
77736;SDS011;66903;59.926;30.404;2023-05-17T06:19:51;1.63;;;0.70;;
77736;SDS011;66903;59.926;30.404;2023-05-17T06:24:52;0.80;;;0.47;;
77736;SDS011;66903;59.926;30.404;2023-05-17T06:29:52;4.90;;;0.60;;
77736;SDS011;66903;59.926;30.404;2023-05-17T06:34:54;2.75;;;0.60;;
77736;SDS011;66903;59.926;30.404;2023-05-17T06:40:00;1.48;;;0.60;;
77736;SDS011;66903;59.926;30.404;2023-05-17T06:45:04;1.55;;;0.60;;
77736;SDS011;66903;59.926;30.404;2023-05-17T06:50:05;2.90;;;0.75;;
77736;SDS011;66903;59.926;30.404;2023-05-17T06:55:06;1.67;;;0.70;;
77736;SDS011;66903;59.926;30.404;2023-05-17T07:00:08;1.70;;;0.60;;
77736;SDS011;66903;59.926;30.404;2023-05-17T07:05:10;2.35;;;0.80;;
77736;SDS011;66903;59.926;30.404;2023-05-17T07:10:10;1.27;;;0.70;;
77736;SDS011;66903;59.926;30.404;2023-05-17T07:15:11;1.30;;;0.70;;
77736;SDS011;66903;59.926;30.404;2023-05-17T07:20:12;1.27;;;0.60;;
77736;SDS011;66903;59.926;30.404;2023-05-17T07:25:13;1.90;;;0.70;;
77736;SDS011;66903;59.926;30.404;2023-05-17T07:30:14;1.73;;;0.70;;
77736;SDS011;66903;59.926;30.404;2023-05-17T07:35:15;2.80;;;0.50;;
77736;SDS011;66903;59.926;30.404;2023-05-17T07:40:16;2.00;;;0.68;;
77736;SDS011;66903;59.926;30.404;2023-05-17T07:45:17;1.58;;;0.60;;
77736;SDS011;66903;59.926;30.404;2023-05-17T07:50:18;1.20;;;0.60;;
77736;SDS011;66903;59.926;30.404;2023-05-17T07:55:18;1.38;;;0.60;;
77736;SDS011;66903;59.926;30.404;2023-05-17T08:00:20;1.17;;;0.50;;
77736;SDS011;66903;59.926;30.404;2023-05-17T08:05:21;3.67;;;0.60;;
77736;SDS011;66903;59.926;30.404;2023-05-17T08:10:22;1.10;;;0.50;;
77736;SDS011;66903;59.926;30.404;2023-05-17T08:15:22;2.30;;;0.60;;
77736;SDS011;66903;59.926;30.404;2023-05-17T08:20:23;1.63;;;0.70;;
77736;SDS011;66903;59.926;30.404;2023-05-17T08:25:23;1.85;;;0.60;;
77736;SDS011;66903;59.926;30.404;2023-05-17T08:30:24;1.33;;;0.57;;
77736;SDS011;66903;59.926;30.404;2023-05-17T08:35:24;1.63;;;0.57;;
77736;SDS011;66903;59.926;30.404;2023-05-17T08:40:26;1.70;;;0.55;;
77736;SDS011;66903;59.926;30.404;2023-05-17T08:45:27;1.15;;;0.50;;
77736;SDS011;66903;59.926;30.404;2023-05-17T08:50:30;1.40;;;0.50;;
77736;SDS011;66903;59.926;30.404;2023-05-17T08:55:33;2.13;;;0.70;;
77736;SDS011;66903;59.926;30.404;2023-05-17T09:00:34;3.47;;;0.52;;
77736;SDS011;66903;59.926;30.404;2023-05-17T09:05:35;1.50;;;0.60;;
77736;SDS011;66903;59.926;30.404;2023-05-17T09:10:35;0.90;;;0.40;;
77736;SDS011;66903;59.926;30.404;2023-05-17T09:15:36;1.30;;;0.45;;
77736;SDS011;66903;59.926;30.404;2023-05-17T09:20:37;1.02;;;0.50;;
77736;SDS011;66903;59.926;30.404;2023-05-17T09:25:45;1.30;;;0.57;;
77736;SDS011;66903;59.926;30.404;2023-05-17T09:30:47;1.55;;;0.50;;
77736;SDS011;66903;59.926;30.404;2023-05-17T09:35:48;1.60;;;0.60;;
77736;SDS011;66903;59.926;30.404;2023-05-17T09:40:49;1.35;;;0.40;;
77736;SDS011;66903;59.926;30.404;2023-05-17T09:45:57;1.88;;;0.68;;
77736;SDS011;66903;59.926;30.404;2023-05-17T09:50:57;1.67;;;0.60;;
77736;SDS011;66903;59.926;30.404;2023-05-17T09:56:00;1.20;;;0.50;;
77736;SDS011;66903;59.926;30.404;2023-05-17T10:01:02;1.50;;;0.50;;
77736;SDS011;66903;59.926;30.404;2023-05-17T10:06:05;1.35;;;0.50;;
77736;SDS011;66903;59.926;30.404;2023-05-17T10:11:08;0.93;;;0.47;;
77736;SDS011;66903;59.926;30.404;2023-05-17T10:16:10;1.35;;;0.45;;
77736;SDS011;66903;59.926;30.404;2023-05-17T10:21:11;1.58;;;0.63;;
77736;SDS011;66903;59.926;30.404;2023-05-17T10:26:13;1.55;;;0.63;;
77736;SDS011;66903;59.926;30.404;2023-05-17T10:31:17;1.58;;;0.52;;
77736;SDS011;66903;59.926;30.404;2023-05-17T10:36:18;0.85;;;0.52;;
77736;SDS011;66903;59.926;30.404;2023-05-17T10:41:21;1.30;;;0.52;;
77736;SDS011;66903;59.926;30.404;2023-05-17T10:46:25;0.70;;;0.40;;
77736;SDS011;66903;59.926;30.404;2023-05-17T10:51:30;1.35;;;0.60;;
77736;SDS011;66903;59.926;30.404;2023-05-17T10:56:32;1.02;;;0.50;;
77736;SDS011;66903;59.926;30.404;2023-05-17T11:06:55;0.90;;;0.50;;
77736;SDS011;66903;59.926;30.404;2023-05-17T11:12:30;1.10;;;0.50;;
77736;SDS011;66903;59.926;30.404;2023-05-17T11:22:42;1.85;;;0.60;;
77736;SDS011;66903;59.926;30.404;2023-05-17T11:27:50;0.77;;;0.40;;
77736;SDS011;66903;59.926;30.404;2023-05-17T11:32:52;1.25;;;0.70;;
77736;SDS011;66903;59.926;30.404;2023-05-17T11:38:12;0.68;;;0.40;;
77736;SDS011;66903;59.926;30.404;2023-05-17T11:43:17;1.10;;;0.50;;
77736;SDS011;66903;59.926;30.404;2023-05-17T11:48:22;1.42;;;0.50;;
77736;SDS011;66903;59.926;30.404;2023-05-17T11:53:24;1.10;;;0.50;;
77736;SDS011;66903;59.926;30.404;2023-05-17T11:58:26;1.30;;;0.60;;
77736;SDS011;66903;59.926;30.404;2023-05-17T12:03:28;1.67;;;0.60;;
77736;SDS011;66903;59.926;30.404;2023-05-17T12:08:30;1.95;;;0.63;;
77736;SDS011;66903;59.926;30.404;2023-05-17T12:13:34;1.50;;;0.65;;
77736;SDS011;66903;59.926;30.404;2023-05-17T12:18:35;1.08;;;0.50;;
77736;SDS011;66903;59.926;30.404;2023-05-17T12:23:37;4.00;;;0.80;;
77736;SDS011;66903;59.926;30.404;2023-05-17T12:28:52;3.50;;;1.15;;
77736;SDS011;66903;59.926;30.404;2023-05-17T12:33:59;3.28;;;1.15;;
77736;SDS011;66903;59.926;30.404;2023-05-17T12:39:01;2.22;;;0.80;;
77736;SDS011;66903;59.926;30.404;2023-05-17T12:44:08;2.75;;;0.80;;
77736;SDS011;66903;59.926;30.404;2023-05-17T12:49:08;2.25;;;0.80;;
77736;SDS011;66903;59.926;30.404;2023-05-17T12:54:27;2.25;;;0.95;;
77736;SDS011;66903;59.926;30.404;2023-05-17T12:59:29;2.30;;;0.75;;
77736;SDS011;66903;59.926;30.404;2023-05-17T13:04:31;2.83;;;0.75;;
77736;SDS011;66903;59.926;30.404;2023-05-17T13:09:33;2.38;;;0.93;;
77736;SDS011;66903;59.926;30.404;2023-05-17T13:19:44;2.53;;;0.70;;
77736;SDS011;66903;59.926;30.404;2023-05-17T13:24:44;1.85;;;0.60;;
77736;SDS011;66903;59.926;30.404;2023-05-17T13:29:45;3.65;;;0.80;;
77736;SDS011;66903;59.926;30.404;2023-05-17T13:34:46;2.47;;;0.68;;
77736;SDS011;66903;59.926;30.404;2023-05-17T13:39:46;2.53;;;0.90;;
77736;SDS011;66903;59.926;30.404;2023-05-17T13:44:47;2.22;;;0.80;;
77736;SDS011;66903;59.926;30.404;2023-05-17T13:49:48;3.38;;;0.80;;
77736;SDS011;66903;59.926;30.404;2023-05-17T13:54:48;1.25;;;0.55;;
77736;SDS011;66903;59.926;30.404;2023-05-17T13:59:49;3.28;;;0.93;;
77736;SDS011;66903;59.926;30.404;2023-05-17T14:04:49;1.27;;;0.57;;
77736;SDS011;66903;59.926;30.404;2023-05-17T14:09:50;5.68;;;0.88;;
77736;SDS011;66903;59.926;30.404;2023-05-17T14:14:50;2.05;;;0.77;;
77736;SDS011;66903;59.926;30.404;2023-05-17T14:19:51;2.15;;;0.70;;
77736;SDS011;66903;59.926;30.404;2023-05-17T14:24:53;1.95;;;0.60;;
77736;SDS011;66903;59.926;30.404;2023-05-17T14:29:53;1.52;;;0.55;;
77736;SDS011;66903;59.926;30.404;2023-05-17T14:34:54;1.73;;;0.70;;
77736;SDS011;66903;59.926;30.404;2023-05-17T14:39:55;2.45;;;0.90;;
77736;SDS011;66903;59.926;30.404;2023-05-17T14:44:55;1.80;;;0.70;;
77736;SDS011;66903;59.926;30.404;2023-05-17T14:49:56;1.58;;;0.73;;
77736;SDS011;66903;59.926;30.404;2023-05-17T14:54:57;2.30;;;0.70;;
77736;SDS011;66903;59.926;30.404;2023-05-17T14:59:58;4.57;;;1.02;;
77736;SDS011;66903;59.926;30.404;2023-05-17T15:05:00;1.58;;;0.70;;
77736;SDS011;66903;59.926;30.404;2023-05-17T15:10:03;1.35;;;0.60;;
77736;SDS011;66903;59.926;30.404;2023-05-17T15:15:04;2.28;;;0.80;;
77736;SDS011;66903;59.926;30.404;2023-05-17T15:20:05;2.67;;;1.10;;
77736;SDS011;66903;59.926;30.404;2023-05-17T15:25:07;2.55;;;0.80;;
77736;SDS011;66903;59.926;30.404;2023-05-17T15:30:08;2.45;;;0.73;;
77736;SDS011;66903;59.926;30.404;2023-05-17T15:35:09;3.03;;;0.85;;
77736;SDS011;66903;59.926;30.404;2023-05-17T15:40:09;2.50;;;0.80;;
77736;SDS011;66903;59.926;30.404;2023-05-17T15:45:10;2.95;;;0.88;;
77736;SDS011;66903;59.926;30.404;2023-05-17T15:50:11;1.85;;;0.85;;
77736;SDS011;66903;59.926;30.404;2023-05-17T15:55:11;2.17;;;0.90;;
77736;SDS011;66903;59.926;30.404;2023-05-17T16:00:12;2.60;;;1.00;;
77736;SDS011;66903;59.926;30.404;2023-05-17T16:05:13;2.30;;;0.80;;
77736;SDS011;66903;59.926;30.404;2023-05-17T16:10:14;5.25;;;1.10;;
77736;SDS011;66903;59.926;30.404;2023-05-17T16:15:14;1.95;;;0.70;;
77736;SDS011;66903;59.926;30.404;2023-05-17T16:20:15;6.60;;;0.90;;
77736;SDS011;66903;59.926;30.404;2023-05-17T16:25:17;2.50;;;0.85;;
77736;SDS011;66903;59.926;30.404;2023-05-17T16:30:18;4.88;;;1.60;;
77736;SDS011;66903;59.926;30.404;2023-05-17T16:35:19;3.78;;;1.08;;
77736;SDS011;66903;59.926;30.404;2023-05-17T16:40:22;5.13;;;1.65;;
77736;SDS011;66903;59.926;30.404;2023-05-17T16:45:23;6.43;;;2.17;;
77736;SDS011;66903;59.926;30.404;2023-05-17T16:50:23;6.70;;;2.42;;
77736;SDS011;66903;59.926;30.404;2023-05-17T16:55:24;5.55;;;2.13;;
77736;SDS011;66903;59.926;30.404;2023-05-17T17:00:25;4.32;;;1.80;;
77736;SDS011;66903;59.926;30.404;2023-05-17T17:05:26;7.28;;;1.90;;
77736;SDS011;66903;59.926;30.404;2023-05-17T17:10:27;6.07;;;2.10;;
77736;SDS011;66903;59.926;30.404;2023-05-17T17:15:27;4.28;;;1.60;;
77736;SDS011;66903;59.926;30.404;2023-05-17T17:20:28;3.92;;;1.77;;
77736;SDS011;66903;59.926;30.404;2023-05-17T17:25:29;3.95;;;1.58;;
77736;SDS011;66903;59.926;30.404;2023-05-17T17:30:30;7.65;;;1.92;;
77736;SDS011;66903;59.926;30.404;2023-05-17T17:35:30;5.00;;;1.65;;
77736;SDS011;66903;59.926;30.404;2023-05-17T17:40:31;4.97;;;1.90;;
77736;SDS011;66903;59.926;30.404;2023-05-17T17:45:31;4.05;;;1.42;;
77736;SDS011;66903;59.926;30.404;2023-05-17T17:50:32;3.85;;;1.40;;
77736;SDS011;66903;59.926;30.404;2023-05-17T17:55:33;4.22;;;1.25;;
77736;SDS011;66903;59.926;30.404;2023-05-17T18:00:33;4.95;;;1.58;;
77736;SDS011;66903;59.926;30.404;2023-05-17T18:05:34;4.10;;;1.15;;
77736;SDS011;66903;59.926;30.404;2023-05-17T18:10:35;2.80;;;1.20;;
77736;SDS011;66903;59.926;30.404;2023-05-17T18:15:35;4.03;;;1.10;;
77736;SDS011;66903;59.926;30.404;2023-05-17T18:20:36;3.58;;;1.00;;
77736;SDS011;66903;59.926;30.404;2023-05-17T18:25:36;4.00;;;1.20;;
77736;SDS011;66903;59.926;30.404;2023-05-17T18:30:37;4.78;;;1.40;;
77736;SDS011;66903;59.926;30.404;2023-05-17T18:35:39;3.85;;;1.30;;
77736;SDS011;66903;59.926;30.404;2023-05-17T18:40:39;5.45;;;1.20;;
77736;SDS011;66903;59.926;30.404;2023-05-17T18:45:40;3.97;;;1.33;;
77736;SDS011;66903;59.926;30.404;2023-05-17T18:50:40;4.03;;;1.30;;
77736;SDS011;66903;59.926;30.404;2023-05-17T18:55:41;6.28;;;1.95;;
77736;SDS011;66903;59.926;30.404;2023-05-17T19:00:41;6.20;;;1.25;;
77736;SDS011;66903;59.926;30.404;2023-05-17T19:05:44;2.85;;;1.05;;
77736;SDS011;66903;59.926;30.404;2023-05-17T19:10:44;4.28;;;1.50;;
77736;SDS011;66903;59.926;30.404;2023-05-17T19:15:45;3.80;;;1.15;;
77736;SDS011;66903;59.926;30.404;2023-05-17T19:20:45;3.65;;;1.30;;
77736;SDS011;66903;59.926;30.404;2023-05-17T19:25:46;4.65;;;1.30;;
77736;SDS011;66903;59.926;30.404;2023-05-17T19:30:47;5.75;;;1.27;;
77736;SDS011;66903;59.926;30.404;2023-05-17T19:35:48;3.70;;;1.40;;
77736;SDS011;66903;59.926;30.404;2023-05-17T19:40:48;4.10;;;1.48;;
77736;SDS011;66903;59.926;30.404;2023-05-17T19:45:49;5.18;;;1.30;;
77736;SDS011;66903;59.926;30.404;2023-05-17T19:50:50;3.40;;;1.20;;
77736;SDS011;66903;59.926;30.404;2023-05-17T19:55:51;3.55;;;1.33;;
77736;SDS011;66903;59.926;30.404;2023-05-17T20:00:52;3.45;;;1.38;;
77736;SDS011;66903;59.926;30.404;2023-05-17T20:05:53;7.00;;;1.70;;
77736;SDS011;66903;59.926;30.404;2023-05-17T20:10:56;4.65;;;1.42;;
77736;SDS011;66903;59.926;30.404;2023-05-17T20:15:56;3.20;;;1.33;;
77736;SDS011;66903;59.926;30.404;2023-05-17T20:20:57;4.07;;;2.00;;
77736;SDS011;66903;59.926;30.404;2023-05-17T20:25:57;4.25;;;1.70;;
77736;SDS011;66903;59.926;30.404;2023-05-17T20:30:58;3.97;;;1.50;;
77736;SDS011;66903;59.926;30.404;2023-05-17T20:35:59;4.30;;;1.70;;
77736;SDS011;66903;59.926;30.404;2023-05-17T20:41:00;7.05;;;2.47;;
77736;SDS011;66903;59.926;30.404;2023-05-17T20:46:01;8.68;;;2.90;;
77736;SDS011;66903;59.926;30.404;2023-05-17T20:51:05;5.45;;;3.22;;
77736;SDS011;66903;59.926;30.404;2023-05-17T20:56:06;6.03;;;3.03;;
77736;SDS011;66903;59.926;30.404;2023-05-17T21:01:06;3.95;;;2.08;;
77736;SDS011;66903;59.926;30.404;2023-05-17T21:06:07;8.70;;;2.40;;
77736;SDS011;66903;59.926;30.404;2023-05-17T21:11:08;6.30;;;2.20;;
77736;SDS011;66903;59.926;30.404;2023-05-17T21:16:08;5.00;;;2.60;;
77736;SDS011;66903;59.926;30.404;2023-05-17T21:21:09;4.65;;;1.63;;
77736;SDS011;66903;59.926;30.404;2023-05-17T21:26:10;5.97;;;1.33;;
77736;SDS011;66903;59.926;30.404;2023-05-17T21:31:10;3.80;;;1.42;;
77736;SDS011;66903;59.926;30.404;2023-05-17T21:36:11;3.60;;;1.40;;
77736;SDS011;66903;59.926;30.404;2023-05-17T21:41:11;5.82;;;1.35;;
77736;SDS011;66903;59.926;30.404;2023-05-17T21:46:12;3.15;;;1.05;;
77736;SDS011;66903;59.926;30.404;2023-05-17T21:51:12;3.22;;;1.30;;
77736;SDS011;66903;59.926;30.404;2023-05-17T21:56:13;3.38;;;1.02;;
77736;SDS011;66903;59.926;30.404;2023-05-17T22:01:13;4.95;;;1.20;;
77736;SDS011;66903;59.926;30.404;2023-05-17T22:06:16;5.03;;;1.25;;
77736;SDS011;66903;59.926;30.404;2023-05-17T22:11:18;2.75;;;1.10;;
77736;SDS011;66903;59.926;30.404;2023-05-17T22:16:21;3.10;;;0.98;;
77736;SDS011;66903;59.926;30.404;2023-05-17T22:21:22;3.58;;;1.05;;
77736;SDS011;66903;59.926;30.404;2023-05-17T22:26:23;3.05;;;1.20;;
77736;SDS011;66903;59.926;30.404;2023-05-17T22:31:24;3.28;;;1.17;;
77736;SDS011;66903;59.926;30.404;2023-05-17T22:36:25;3.20;;;1.02;;
77736;SDS011;66903;59.926;30.404;2023-05-17T22:41:25;2.88;;;1.13;;
77736;SDS011;66903;59.926;30.404;2023-05-17T22:46:26;4.03;;;1.30;;
77736;SDS011;66903;59.926;30.404;2023-05-17T22:51:27;2.58;;;1.00;;
77736;SDS011;66903;59.926;30.404;2023-05-17T22:56:29;3.15;;;1.20;;
77736;SDS011;66903;59.926;30.404;2023-05-17T23:01:30;3.20;;;1.10;;
77736;SDS011;66903;59.926;30.404;2023-05-17T23:06:30;2.92;;;1.20;;
77736;SDS011;66903;59.926;30.404;2023-05-17T23:11:33;3.20;;;1.20;;
77736;SDS011;66903;59.926;30.404;2023-05-17T23:16:33;2.78;;;1.00;;
77736;SDS011;66903;59.926;30.404;2023-05-17T23:21:34;3.15;;;1.02;;
77736;SDS011;66903;59.926;30.404;2023-05-17T23:26:35;2.63;;;1.00;;
77736;SDS011;66903;59.926;30.404;2023-05-17T23:31:35;2.80;;;1.00;;
77736;SDS011;66903;59.926;30.404;2023-05-17T23:36:36;2.63;;;0.95;;
77736;SDS011;66903;59.926;30.404;2023-05-17T23:41:37;4.57;;;1.15;;
77736;SDS011;66903;59.926;30.404;2023-05-17T23:46:37;3.22;;;1.17;;
77736;SDS011;66903;59.926;30.404;2023-05-17T23:51:38;2.03;;;0.70;;
77736;SDS011;66903;59.926;30.404;2023-05-17T23:56:38;3.13;;;1.10;;
